Time;durP1;ratioP1;P1;durP2;ratioP2;P2;SDS_P1;SDS_P2;PMS_P1;PMS_P2;Temp;Humidity;BMP_temperature;BMP_pressure;BME280_temperature;BME280_humidity;BME280_pressure;Samples;Min_cycle;Max_cycle;Signal;HPM_P1;HPM_P2
2022/04/17 00:01:02;;;;;;;7.20;4.38;;;12.00;99.90;;;;;;5077101;28;20163;-88
2022/04/17 00:03:27;;;;;;;4.55;4.07;;;11.90;99.90;;;;;;5080893;28;20190;-89
2022/04/17 00:05:53;;;;;;;4.15;3.75;;;11.70;99.90;;;;;;5077238;28;20323;-89
2022/04/17 00:08:19;;;;;;;3.92;3.63;;;11.70;99.90;;;;;;5076962;28;20159;-84
2022/04/17 00:10:46;;;;;;;4.78;4.03;;;11.80;99.90;;;;;;5076851;28;20257;-88
2022/04/17 00:13:11;;;;;;;5.18;4.05;;;11.70;99.90;;;;;;5076518;28;20228;-87
2022/04/17 00:15:37;;;;;;;3.70;3.38;;;11.70;99.90;;;;;;5076646;28;20691;-88
2022/04/17 00:18:03;;;;;;;9.85;4.72;;;11.70;99.90;;;;;;5076684;28;20154;-83
2022/04/17 00:20:28;;;;;;;6.05;4.22;;;11.60;99.90;;;;;;5076757;28;20182;-83
2022/04/17 00:22:54;;;;;;;5.60;3.50;;;11.50;99.90;;;;;;5076986;28;20562;-87
2022/04/17 00:25:19;;;;;;;4.47;3.90;;;11.40;99.90;;;;;;5076753;28;20175;-85
2022/04/17 00:27:45;;;;;;;6.22;3.95;;;11.30;99.90;;;;;;5076839;28;20559;-89
2022/04/17 00:30:11;;;;;;;5.22;4.57;;;11.10;99.90;;;;;;5076850;28;20174;-85
2022/04/17 00:32:38;;;;;;;6.07;3.92;;;11.10;99.90;;;;;;5077010;28;20246;-89
2022/04/17 00:35:05;;;;;;;5.07;4.07;;;11.20;99.90;;;;;;5075392;28;20682;-88
2022/04/17 00:37:31;;;;;;;7.35;3.72;;;11.10;99.90;;;;;;5076927;28;20159;-89
2022/04/17 00:39:57;;;;;;;6.75;3.80;;;11.00;99.90;;;;;;5076916;28;20163;-89
2022/04/17 00:42:22;;;;;;;5.28;3.65;;;11.10;99.90;;;;;;5076358;28;20319;-86
2022/04/17 00:44:48;;;;;;;7.53;3.53;;;11.10;99.90;;;;;;5076211;28;20190;-83
2022/04/17 00:47:16;;;;;;;7.10;3.88;;;11.20;99.90;;;;;;5076180;28;20562;-85
2022/04/17 00:49:46;;;;;;;6.07;4.75;;;11.30;99.90;;;;;;5075452;28;20171;-85
2022/04/17 00:52:12;;;;;;;4.10;3.67;;;11.30;99.90;;;;;;5075780;28;20163;-89
2022/04/17 00:54:47;;;;;;;5.07;4.13;;;11.30;99.90;;;;;;5075895;28;20229;-87
2022/04/17 00:57:16;;;;;;;7.47;4.97;;;11.20;99.90;;;;;;5076095;28;20173;-87
2022/04/17 00:59:42;;;;;;;4.13;3.72;;;11.20;99.90;;;;;;5076296;28;20166;-83
2022/04/17 01:02:09;;;;;;;4.72;3.38;;;11.30;99.90;;;;;;5075290;28;20162;-88
2022/04/17 01:04:36;;;;;;;6.63;3.70;;;11.50;99.90;;;;;;5076144;28;20183;-83
2022/04/17 01:07:02;;;;;;;6.68;3.83;;;11.60;99.90;;;;;;5075745;28;20534;-89
2022/04/17 01:09:28;;;;;;;4.75;3.85;;;11.60;99.90;;;;;;5076361;28;20166;-87
2022/04/17 01:11:54;;;;;;;5.22;3.33;;;11.40;99.90;;;;;;5076093;28;20170;-87
2022/04/17 01:14:20;;;;;;;4.18;3.75;;;11.30;99.90;;;;;;5076012;28;20260;-89
2022/04/17 01:16:47;;;;;;;4.35;3.40;;;11.30;99.90;;;;;;5075806;28;20159;-89
2022/04/17 01:19:12;;;;;;;5.55;4.32;;;11.20;99.90;;;;;;5076223;28;20163;-89
2022/04/17 01:21:40;;;;;;;4.10;3.53;;;11.20;99.90;;;;;;5075876;28;20166;-90
2022/04/17 01:26:57;;;;;;;4.75;4.00;;;10.90;99.90;;;;;;5075913;28;20235;-90
2022/04/17 01:29:31;;;;;;;5.18;3.75;;;10.80;99.90;;;;;;5075859;28;20170;-89
2022/04/17 01:32:08;;;;;;;4.25;3.78;;;10.80;99.90;;;;;;5076005;28;20165;-90
2022/04/17 01:34:34;;;;;;;4.18;3.65;;;10.60;99.90;;;;;;5075650;28;20666;-89
2022/04/17 01:37:01;;;;;;;4.60;3.88;;;10.50;99.90;;;;;;5075653;28;20162;-89
2022/04/17 01:39:27;;;;;;;10.00;4.25;;;10.60;99.90;;;;;;5075628;28;20180;-87
2022/04/17 01:41:54;;;;;;;7.30;4.20;;;10.70;99.90;;;;;;5075307;28;20194;-89
2022/04/17 01:44:20;;;;;;;4.95;4.15;;;10.60;99.90;;;;;;5075318;28;20198;-89
2022/04/17 01:46:46;;;;;;;4.20;3.80;;;10.60;99.90;;;;;;5074437;28;20680;-87
2022/04/17 01:49:15;;;;;;;4.70;3.70;;;10.60;99.90;;;;;;5075957;28;20166;-88
2022/04/17 01:51:42;;;;;;;4.85;4.15;;;10.50;99.90;;;;;;5075771;28;20185;-89
2022/04/17 01:54:09;;;;;;;4.63;4.22;;;10.40;99.90;;;;;;5075287;28;20217;-85
2022/04/17 01:56:36;;;;;;;6.80;4.13;;;10.20;99.90;;;;;;5075299;28;20154;-87
2022/04/17 01:59:04;;;;;;;5.10;3.75;;;10.20;99.90;;;;;;5075338;28;20219;-85
2022/04/17 02:01:29;;;;;;;4.55;3.92;;;10.10;99.90;;;;;;5075152;28;20553;-86
2022/04/17 02:03:55;;;;;;;13.02;4.50;;;9.90;99.90;;;;;;5074451;28;20280;-89
2022/04/17 02:06:20;;;;;;;4.40;4.00;;;10.10;99.90;;;;;;5074953;28;20204;-87
2022/04/17 02:08:46;;;;;;;6.63;4.10;;;10.10;99.90;;;;;;5074860;28;20167;-84
2022/04/17 02:11:12;;;;;;;6.68;4.00;;;10.10;99.90;;;;;;5073792;28;20315;-80
2022/04/17 02:13:39;;;;;;;4.20;3.78;;;10.10;99.90;;;;;;5071975;28;20614;-88
2022/04/17 02:16:05;;;;;;;5.15;4.32;;;10.00;99.90;;;;;;5074264;28;20224;-83
2022/04/17 02:18:31;;;;;;;5.50;3.63;;;10.00;99.90;;;;;;5072921;28;20163;-84
2022/04/17 02:20:57;;;;;;;6.50;4.20;;;9.90;99.90;;;;;;5073205;28;20730;-86
2022/04/17 02:23:22;;;;;;;5.22;3.65;;;9.90;99.90;;;;;;5074312;28;20186;-88
2022/04/17 02:25:48;;;;;;;4.25;3.78;;;10.00;99.90;;;;;;5074316;28;20581;-87
2022/04/17 02:28:14;;;;;;;8.90;3.83;;;10.00;99.90;;;;;;5073350;28;20162;-79
2022/04/17 02:30:40;;;;;;;4.63;4.05;;;10.00;99.90;;;;;;5074480;28;20192;-82
2022/04/17 02:33:06;;;;;;;5.72;4.35;;;10.10;99.90;;;;;;5073735;28;20185;-89
2022/04/17 02:35:32;;;;;;;6.53;3.90;;;10.00;99.90;;;;;;5073991;28;20565;-84
2022/04/17 02:37:57;;;;;;;7.10;3.80;;;9.90;99.90;;;;;;5074115;28;20166;-83
2022/04/17 02:40:23;;;;;;;4.97;4.55;;;9.60;99.90;;;;;;5074006;28;20171;-89
2022/04/17 02:42:49;;;;;;;4.28;3.78;;;9.60;99.90;;;;;;5074280;28;20170;-89
2022/04/17 02:45:14;;;;;;;5.22;3.80;;;9.50;99.90;;;;;;5074142;28;20163;-86
2022/04/17 02:47:43;;;;;;;3.95;3.55;;;9.50;99.90;;;;;;5074202;28;20245;-88
2022/04/17 02:50:10;;;;;;;5.72;3.83;;;9.50;99.90;;;;;;5074158;28;20175;-89
2022/04/17 02:52:35;;;;;;;8.00;3.50;;;9.40;99.90;;;;;;5074075;28;20251;-88
2022/04/17 02:55:01;;;;;;;4.78;3.60;;;9.50;99.90;;;;;;5073957;28;20311;-87
2022/04/17 02:57:27;;;;;;;4.35;3.95;;;9.40;99.90;;;;;;5073574;28;20182;-88
2022/04/17 02:59:53;;;;;;;4.63;4.00;;;9.30;99.90;;;;;;5074165;28;20205;-84
2022/04/17 03:07:48;;;;;;;3.97;3.47;;;9.20;99.90;;;;;;5073686;28;20239;-85
2022/04/17 03:10:13;;;;;;;4.03;3.63;;;9.20;99.90;;;;;;5073581;28;20215;-84
2022/04/17 03:12:39;;;;;;;5.25;3.72;;;9.20;99.90;;;;;;5073501;28;20178;-87
2022/04/17 03:15:06;;;;;;;5.05;4.35;;;9.30;99.90;;;;;;5074309;28;20206;-80
2022/04/17 03:17:32;;;;;;;4.03;3.67;;;9.40;99.90;;;;;;5075624;28;20623;-88
2022/04/17 03:19:58;;;;;;;4.60;3.33;;;9.30;99.90;;;;;;5073915;28;20668;-88
2022/04/17 03:22:25;;;;;;;9.98;4.75;;;9.40;99.90;;;;;;5074161;28;20166;-87
2022/04/17 03:24:51;;;;;;;5.80;3.50;;;9.30;99.90;;;;;;5073617;28;20186;-87
2022/04/17 03:27:17;;;;;;;4.70;3.97;;;9.40;99.90;;;;;;5073788;28;20269;-89
2022/04/17 03:29:42;;;;;;;7.35;3.95;;;9.40;99.90;;;;;;5074125;28;20638;-89
2022/04/17 03:32:08;;;;;;;11.38;4.22;;;9.40;99.90;;;;;;5073998;28;20633;-84
2022/04/17 03:34:34;;;;;;;8.90;4.32;;;9.30;99.90;;;;;;5083460;28;20233;-82
2022/04/17 03:36:59;;;;;;;3.97;3.58;;;9.30;99.90;;;;;;5085564;28;20169;-81
2022/04/17 03:39:25;;;;;;;4.40;3.50;;;9.30;99.90;;;;;;5085314;28;20166;-81
2022/04/17 03:41:53;;;;;;;6.45;3.38;;;9.30;99.90;;;;;;5086890;28;20250;-83
2022/04/17 03:44:19;;;;;;;4.60;3.25;;;9.40;99.90;;;;;;5086579;28;20178;-85
2022/04/17 03:46:45;;;;;;;4.35;3.20;;;9.40;99.90;;;;;;5083262;28;20162;-87
2022/04/17 03:49:11;;;;;;;3.83;3.47;;;9.30;99.90;;;;;;5079051;28;20167;-86
2022/04/17 03:51:37;;;;;;;7.07;3.67;;;9.30;99.90;;;;;;5078050;28;20182;-85
2022/04/17 03:54:02;;;;;;;3.70;3.17;;;9.20;99.90;;;;;;5078649;28;20566;-83
2022/04/17 03:56:28;;;;;;;9.73;3.35;;;9.20;99.90;;;;;;5081601;28;20162;-82
2022/04/17 03:58:54;;;;;;;3.45;3.13;;;9.10;99.90;;;;;;5081601;28;20171;-81
2022/04/17 04:01:19;;;;;;;3.53;3.08;;;9.10;99.90;;;;;;5073385;28;20177;-84
2022/04/17 04:03:47;;;;;;;3.90;3.10;;;9.00;99.90;;;;;;5072856;28;20288;-84
2022/04/17 04:06:12;;;;;;;3.33;2.65;;;9.10;99.90;;;;;;5073067;28;20529;-82
2022/04/17 04:08:38;;;;;;;3.67;3.15;;;9.10;99.90;;;;;;5073139;28;20181;-85
2022/04/17 04:11:03;;;;;;;8.82;2.45;;;9.10;99.90;;;;;;5073140;28;20622;-87
2022/04/17 04:13:29;;;;;;;5.85;2.80;;;8.90;99.90;;;;;;5072450;28;20210;-80
2022/04/17 04:15:55;;;;;;;2.90;2.45;;;8.90;99.90;;;;;;5072867;28;20162;-89
2022/04/17 04:18:21;;;;;;;3.72;2.90;;;8.80;99.90;;;;;;5072884;28;20618;-84
2022/04/17 04:20:47;;;;;;;3.92;3.10;;;8.80;99.90;;;;;;5072839;28;20162;-85
2022/04/17 04:23:12;;;;;;;3.55;2.63;;;8.90;99.90;;;;;;5072670;28;20236;-89
2022/04/17 04:25:38;;;;;;;10.80;2.90;;;8.90;99.90;;;;;;5072961;28;20171;-86
2022/04/17 04:30:48;;;;;;;3.65;2.80;;;8.80;99.90;;;;;;5073598;28;20189;-87
2022/04/17 04:33:14;;;;;;;8.07;3.58;;;8.80;99.90;;;;;;5073412;28;20206;-89
2022/04/17 04:35:39;;;;;;;2.83;2.63;;;9.00;99.90;;;;;;5073431;28;20171;-89
2022/04/17 04:38:06;;;;;;;3.53;2.55;;;8.90;99.90;;;;;;5075669;28;20179;-86
2022/04/17 04:40:32;;;;;;;2.75;2.53;;;8.90;99.90;;;;;;5076931;28;20180;-87
2022/04/17 04:43:01;;;;;;;4.90;2.60;;;8.90;99.90;;;;;;5076680;28;20192;-88
2022/04/17 04:48:12;;;;;;;2.55;2.30;;;8.70;99.90;;;;;;5076712;28;20196;-90
2022/04/17 04:50:38;;;;;;;8.77;2.72;;;8.70;99.90;;;;;;5076671;28;20167;-89
2022/04/17 04:53:04;;;;;;;2.13;1.92;;;8.70;99.90;;;;;;5075865;28;20159;-88
2022/04/17 04:55:30;;;;;;;7.88;2.10;;;9.00;99.90;;;;;;5076487;28;20208;-88
2022/04/17 04:57:55;;;;;;;6.10;2.67;;;9.10;99.90;;;;;;5077089;28;20166;-87
2022/04/17 05:00:21;;;;;;;2.55;2.35;;;9.20;99.90;;;;;;5076647;28;20166;-89
2022/04/17 05:02:47;;;;;;;8.80;2.92;;;9.30;99.90;;;;;;5076324;28;20162;-86
2022/04/17 05:05:13;;;;;;;3.90;1.98;;;9.20;99.90;;;;;;5075135;28;20174;-85
2022/04/17 05:07:39;;;;;;;2.58;2.38;;;9.20;99.90;;;;;;5075976;28;20162;-89
2022/04/17 05:10:06;;;;;;;2.00;1.90;;;9.30;99.90;;;;;;5074659;28;20173;-88
2022/04/17 05:12:32;;;;;;;2.33;2.13;;;9.40;99.90;;;;;;5075836;28;20189;-85
2022/04/17 05:14:58;;;;;;;2.55;1.70;;;9.40;99.90;;;;;;5075837;28;20293;-88
2022/04/17 05:17:23;;;;;;;2.47;1.90;;;9.30;99.90;;;;;;5075837;28;20166;-89
2022/04/17 05:19:50;;;;;;;4.07;2.00;;;9.10;99.90;;;;;;5074485;28;20171;-88
2022/04/17 05:22:20;;;;;;;2.33;1.90;;;9.00;99.90;;;;;;5075792;28;20500;-86
2022/04/17 05:24:46;;;;;;;2.78;2.15;;;9.00;99.90;;;;;;5075891;28;20273;-85
2022/04/17 05:27:13;;;;;;;2.53;2.00;;;9.00;99.90;;;;;;5075705;28;20155;-85
2022/04/17 05:29:39;;;;;;;3.05;2.00;;;9.10;99.90;;;;;;5075536;28;20170;-82
2022/04/17 05:32:05;;;;;;;2.22;1.95;;;9.30;99.90;;;;;;5076262;28;20194;-88
2022/04/17 05:34:31;;;;;;;1.98;1.70;;;9.00;99.90;;;;;;5075400;28;20288;-90
2022/04/17 05:36:56;;;;;;;2.08;1.50;;;9.00;99.90;;;;;;5075717;28;20165;-91
2022/04/17 05:39:22;;;;;;;1.92;1.55;;;8.90;99.90;;;;;;5076077;28;20170;-86
2022/04/17 05:41:49;;;;;;;2.25;2.05;;;8.90;99.90;;;;;;5073979;28;20170;-86
2022/04/17 05:44:15;;;;;;;3.03;2.20;;;8.90;99.90;;;;;;5074565;28;20186;-87
2022/04/17 05:46:42;;;;;;;3.78;1.83;;;8.70;99.90;;;;;;5074640;28;20170;-80
2022/04/17 05:49:08;;;;;;;14.25;2.08;;;8.70;99.90;;;;;;5074741;28;20202;-79
2022/04/17 05:51:35;;;;;;;3.53;1.95;;;8.90;99.90;;;;;;5074831;28;20169;-85
2022/04/17 05:54:05;;;;;;;3.30;1.77;;;8.80;99.90;;;;;;5073949;28;20711;-84
2022/04/17 05:56:31;;;;;;;2.80;2.20;;;9.00;99.90;;;;;;5074001;28;20191;-85
2022/04/17 05:58:57;;;;;;;4.60;2.28;;;9.00;99.90;;;;;;5072802;28;20660;-80
2022/04/17 06:01:24;;;;;;;2.30;2.10;;;9.00;99.90;;;;;;5074085;28;20166;-79
2022/04/17 06:03:50;;;;;;;4.45;2.25;;;9.10;99.90;;;;;;5075090;28;20519;-77
2022/04/17 06:06:20;;;;;;;4.10;2.22;;;9.10;99.90;;;;;;5074619;28;20193;-85
2022/04/17 06:08:46;;;;;;;2.80;2.45;;;9.30;99.90;;;;;;5074459;28;20166;-86
2022/04/17 06:11:12;;;;;;;14.07;2.40;;;9.20;99.90;;;;;;5074455;28;20173;-83
2022/04/17 06:13:38;;;;;;;6.68;2.40;;;9.20;99.90;;;;;;5073663;28;20236;-81
2022/04/17 06:16:04;;;;;;;5.57;2.42;;;9.30;99.90;;;;;;5074185;28;20162;-82
2022/04/17 06:18:30;;;;;;;7.03;2.30;;;9.50;99.90;;;;;;5074016;28;20170;-79
2022/04/17 06:20:56;;;;;;;3.78;2.28;;;9.50;99.90;;;;;;5075780;28;20211;-85
2022/04/17 06:23:22;;;;;;;2.50;2.30;;;9.60;99.90;;;;;;5079246;28;20194;-82
2022/04/17 06:25:47;;;;;;;2.50;2.30;;;9.70;99.90;;;;;;5081913;28;20167;-83
2022/04/17 06:28:13;;;;;;;2.42;2.08;;;9.50;99.90;;;;;;5079224;28;20190;-79
2022/04/17 06:30:39;;;;;;;4.22;2.65;;;9.60;99.90;;;;;;5079694;28;20209;-84
2022/04/17 06:33:05;;;;;;;4.13;2.30;;;9.90;99.90;;;;;;5077921;28;20188;-81
2022/04/17 06:35:30;;;;;;;2.28;2.08;;;9.80;99.90;;;;;;5078633;28;20162;-81
2022/04/17 06:37:58;;;;;;;4.25;2.33;;;10.00;99.90;;;;;;5083552;28;20206;-79
2022/04/17 06:40:26;;;;;;;2.45;2.25;;;10.20;99.90;;;;;;5084131;28;20166;-78
2022/04/17 06:42:55;;;;;;;8.13;2.88;;;10.40;99.90;;;;;;5081566;28;20174;-85
2022/04/17 06:45:20;;;;;;;4.00;2.50;;;10.40;99.90;;;;;;5080201;28;20162;-79
2022/04/17 06:47:46;;;;;;;2.83;2.33;;;10.30;99.90;;;;;;5079239;28;20514;-78
2022/04/17 06:50:14;;;;;;;2.65;2.33;;;10.20;99.90;;;;;;5078697;28;20171;-82
2022/04/17 06:52:39;;;;;;;2.65;2.30;;;10.30;99.90;;;;;;5075681;28;20233;-83
2022/04/17 06:55:08;;;;;;;3.53;2.28;;;10.40;99.90;;;;;;5074357;28;20300;-78
2022/04/17 06:57:34;;;;;;;4.10;2.92;;;10.50;99.90;;;;;;5073437;28;20558;-83
2022/04/17 07:00:12;;;;;;;6.38;2.75;;;10.80;99.90;;;;;;5076468;28;20166;-78
2022/04/17 07:02:38;;;;;;;4.68;2.63;;;11.00;99.90;;;;;;5072004;28;20162;-79
2022/04/17 07:05:05;;;;;;;2.40;2.20;;;11.10;99.90;;;;;;5072748;28;20186;-78
2022/04/17 07:07:31;;;;;;;2.72;2.47;;;11.00;99.90;;;;;;5072734;28;20173;-77
2022/04/17 07:09:56;;;;;;;6.00;2.78;;;11.00;99.90;;;;;;5072771;28;20231;-77
2022/04/17 07:12:25;;;;;;;7.07;2.35;;;11.10;99.90;;;;;;5072712;28;20190;-83
2022/04/17 07:14:51;;;;;;;2.80;2.30;;;11.00;99.90;;;;;;5068897;28;20604;-86
2022/04/17 07:17:17;;;;;;;6.13;1.92;;;10.90;99.90;;;;;;5092093;28;20158;-78
2022/04/17 07:19:43;;;;;;;3.85;1.90;;;10.90;99.90;;;;;;5086286;28;20174;-79
2022/04/17 07:22:13;;;;;;;2.00;1.90;;;11.00;99.90;;;;;;5092711;28;20173;-79
2022/04/17 07:24:40;;;;;;;4.75;2.03;;;11.10;99.90;;;;;;5092430;28;20196;-81
2022/04/17 07:27:06;;;;;;;2.10;1.90;;;11.20;99.90;;;;;;5092405;28;20180;-78
2022/04/17 07:29:32;;;;;;;2.38;2.17;;;11.30;99.90;;;;;;5085459;28;20617;-84
2022/04/17 07:31:57;;;;;;;3.03;1.80;;;11.40;99.90;;;;;;5092670;28;20162;-80
2022/04/17 07:34:23;;;;;;;2.63;1.88;;;11.60;99.90;;;;;;5091844;28;20209;-77
2022/04/17 07:36:52;;;;;;;6.43;1.90;;;11.70;99.90;;;;;;5089867;28;20238;-79
2022/04/17 07:39:18;;;;;;;2.55;2.30;;;11.90;99.90;;;;;;5091618;28;20178;-85
2022/04/17 07:41:46;;;;;;;1.92;1.83;;;12.20;99.90;;;;;;5091303;28;20209;-82
2022/04/17 07:44:12;;;;;;;3.40;1.98;;;12.20;99.90;;;;;;5093179;28;20273;-80
2022/04/17 07:46:42;;;;;;;23.08;2.75;;;12.30;99.90;;;;;;5092881;28;20703;-84
2022/04/17 07:49:08;;;;;;;76.63;5.35;;;12.50;99.90;;;;;;5088038;28;20180;-84
2022/04/17 07:51:34;;;;;;;7.45;1.73;;;12.60;99.90;;;;;;5071120;28;20212;-84
2022/04/17 07:54:01;;;;;;;2.63;1.80;;;12.40;99.90;;;;;;5071449;28;20214;-84
2022/04/17 07:56:26;;;;;;;1.70;1.60;;;12.60;99.90;;;;;;5072864;28;20159;-88
2022/04/17 07:58:52;;;;;;;2.83;2.10;;;12.60;99.90;;;;;;5071301;28;20175;-86
2022/04/17 08:01:18;;;;;;;2.78;1.80;;;12.80;99.90;;;;;;5072495;28;20163;-81
2022/04/17 08:06:10;;;;;;;2.70;2.00;;;13.10;99.90;;;;;;5072665;28;20657;-84
2022/04/17 08:08:39;;;;;;;2.78;1.90;;;13.20;99.90;;;;;;5077169;28;20167;-83
2022/04/17 08:11:05;;;;;;;8.63;1.50;;;13.10;99.90;;;;;;5074242;28;20163;-92
2022/04/17 08:13:31;;;;;;;3.78;2.08;;;13.20;99.90;;;;;;5079993;28;20610;-84
2022/04/17 08:15:57;;;;;;;3.63;1.67;;;13.30;99.70;;;;;;5077250;28;20171;-88
2022/04/17 08:18:23;;;;;;;2.38;1.52;;;13.50;99.80;;;;;;5077675;28;20518;-85
2022/04/17 08:20:48;;;;;;;1.83;1.63;;;13.80;98.40;;;;;;5077088;28;20309;-85
2022/04/17 08:23:14;;;;;;;4.28;2.08;;;13.90;98.70;;;;;;5077117;28;20605;-85
2022/04/17 08:25:40;;;;;;;3.53;1.50;;;14.10;98.10;;;;;;5077226;28;20174;-88
2022/04/17 08:28:06;;;;;;;2.00;1.90;;;14.20;97.60;;;;;;5076483;28;20531;-86
2022/04/17 08:30:33;;;;;;;3.85;1.85;;;14.20;96.80;;;;;;5076035;28;20163;-84
2022/04/17 08:33:02;;;;;;;2.55;1.60;;;14.10;97.00;;;;;;5075072;28;20181;-83
2022/04/17 08:35:28;;;;;;;3.83;1.50;;;14.20;97.90;;;;;;5075930;28;20627;-84
2022/04/17 08:37:57;;;;;;;1.95;1.80;;;14.40;96.70;;;;;;5075657;28;20170;-84
2022/04/17 08:40:24;;;;;;;5.68;1.90;;;14.50;96.90;;;;;;5074431;28;20262;-82
2022/04/17 08:42:50;;;;;;;5.88;1.58;;;14.70;96.30;;;;;;5075189;28;20181;-90
2022/04/17 08:45:16;;;;;;;3.08;1.98;;;14.70;96.90;;;;;;5076351;28;20293;-84
2022/04/17 08:47:43;;;;;;;1.85;1.70;;;14.70;96.30;;;;;;5074537;28;20245;-87
2022/04/17 08:50:09;;;;;;;3.33;2.10;;;14.70;96.70;;;;;;5075899;28;20258;-84
2022/04/17 08:52:35;;;;;;;2.75;1.90;;;14.70;96.10;;;;;;5075612;28;20178;-83
2022/04/17 08:55:02;;;;;;;2.53;1.88;;;14.70;96.20;;;;;;5075950;28;20210;-79
2022/04/17 08:57:28;;;;;;;3.60;2.13;;;14.50;97.60;;;;;;5074961;28;20224;-81
2022/04/17 08:59:53;;;;;;;5.03;2.88;;;14.80;96.30;;;;;;5075186;28;20174;-84
2022/04/17 09:02:19;;;;;;;2.92;2.28;;;15.00;96.10;;;;;;5074728;28;20696;-87
2022/04/17 09:04:46;;;;;;;2.40;2.10;;;15.20;95.90;;;;;;5075356;28;20217;-85
2022/04/17 09:07:13;;;;;;;3.15;1.90;;;15.10;95.60;;;;;;5075118;28;20634;-78
2022/04/17 09:09:56;;;;;;;1.92;1.80;;;15.20;96.00;;;;;;5075090;28;20183;-82
2022/04/17 09:12:23;;;;;;;3.40;1.75;;;15.30;96.00;;;;;;5075275;28;20178;-85
2022/04/17 09:14:50;;;;;;;2.72;2.15;;;15.50;95.30;;;;;;5075039;28;20705;-85
2022/04/17 09:17:16;;;;;;;2.40;2.20;;;15.50;94.50;;;;;;5075271;28;20188;-82
2022/04/17 09:19:43;;;;;;;3.38;1.90;;;15.60;94.70;;;;;;5076812;28;20170;-84
2022/04/17 09:22:12;;;;;;;1.90;1.70;;;15.70;94.40;;;;;;5075182;28;20166;-85
2022/04/17 09:24:39;;;;;;;1.70;1.60;;;15.70;95.30;;;;;;5074447;28;20190;-83
2022/04/17 09:27:07;;;;;;;2.35;1.95;;;15.80;94.70;;;;;;5074808;28;20254;-82
2022/04/17 09:29:39;;;;;;;3.15;2.30;;;15.70;94.40;;;;;;5073607;28;20519;-79
2022/04/17 09:32:11;;;;;;;2.67;1.90;;;15.70;95.10;;;;;;5073349;28;20284;-80
2022/04/17 09:34:55;;;;;;;5.70;2.05;;;15.70;95.90;;;;;;5074651;28;20218;-79
2022/04/17 09:37:22;;;;;;;3.67;2.13;;;15.70;95.70;;;;;;5073233;28;20204;-85
2022/04/17 09:39:49;;;;;;;3.30;2.03;;;15.90;96.70;;;;;;5073476;28;20265;-85
2022/04/17 09:42:29;;;;;;;2.75;2.42;;;16.00;96.00;;;;;;5073343;28;20707;-85
2022/04/17 09:44:54;;;;;;;2.85;2.40;;;15.90;95.90;;;;;;5074141;28;20529;-83
2022/04/17 09:47:26;;;;;;;4.75;2.72;;;16.00;96.10;;;;;;5074278;28;20212;-77
2022/04/17 09:50:08;;;;;;;3.08;2.30;;;16.00;96.10;;;;;;5077299;28;20194;-77
2022/04/17 09:52:40;;;;;;;3.13;2.53;;;15.90;95.60;;;;;;5073954;28;20216;-77
2022/04/17 09:55:07;;;;;;;2.45;2.22;;;15.90;96.00;;;;;;5073518;28;20608;-77
2022/04/17 09:57:33;;;;;;;4.20;2.45;;;15.80;95.80;;;;;;5073738;28;20155;-77
2022/04/17 10:00:16;;;;;;;4.53;2.70;;;15.80;95.80;;;;;;5074015;28;20170;-77
2022/04/17 10:02:44;;;;;;;2.85;2.55;;;15.80;96.20;;;;;;5073594;28;20252;-77
2022/04/17 10:05:12;;;;;;;2.47;2.28;;;15.80;96.30;;;;;;5073338;28;20225;-77
2022/04/17 10:07:39;;;;;;;2.83;2.45;;;15.80;96.30;;;;;;5073264;28;20650;-77
2022/04/17 10:10:06;;;;;;;2.42;2.22;;;15.80;95.70;;;;;;5073110;28;20245;-77
2022/04/17 10:12:34;;;;;;;4.72;3.05;;;16.00;95.80;;;;;;5073013;28;20198;-77
2022/04/17 10:15:04;;;;;;;2.70;2.08;;;16.00;95.70;;;;;;5072910;28;20202;-77
2022/04/17 10:17:30;;;;;;;2.63;2.30;;;16.00;96.00;;;;;;5073003;28;20167;-77
2022/04/17 10:20:01;;;;;;;2.22;2.00;;;16.00;96.00;;;;;;5072142;28;20218;-76
2022/04/17 10:22:31;;;;;;;2.55;2.35;;;16.10;95.90;;;;;;5072895;28;20169;-77
2022/04/17 10:24:58;;;;;;;3.20;2.65;;;16.30;96.20;;;;;;5072645;28;20182;-77
2022/04/17 10:27:32;;;;;;;2.50;2.30;;;16.50;95.70;;;;;;5071954;28;20158;-77
2022/04/17 10:30:15;;;;;;;2.88;2.38;;;16.50;95.50;;;;;;5073015;28;20175;-77
2022/04/17 10:33:05;;;;;;;5.15;2.00;;;16.70;95.20;;;;;;5072472;28;20181;-76
2022/04/17 10:36:10;;;;;;;2.47;2.25;;;16.50;95.20;;;;;;5072051;28;20213;-77
2022/04/17 10:38:50;;;;;;;3.15;2.38;;;16.60;94.50;;;;;;5072519;28;20159;-77
2022/04/17 10:41:16;;;;;;;3.45;2.40;;;16.50;94.00;;;;;;5072610;28;20211;-77
2022/04/17 10:43:47;;;;;;;2.75;1.92;;;16.50;94.20;;;;;;5072041;28;20579;-77
2022/04/17 10:46:20;;;;;;;8.65;2.65;;;16.50;93.50;;;;;;5072663;28;20661;-77
2022/04/17 10:48:46;;;;;;;6.60;2.15;;;16.40;94.00;;;;;;5071289;28;20201;-82
2022/04/17 10:51:31;;;;;;;2.45;2.25;;;16.40;93.40;;;;;;5072296;28;20166;-77
2022/04/17 10:54:03;;;;;;;4.38;3.03;;;16.50;94.10;;;;;;5072473;28;20312;-78
2022/04/17 10:56:29;;;;;;;3.45;2.70;;;16.50;95.40;;;;;;5072336;28;20177;-77
2022/04/17 10:58:57;;;;;;;2.55;2.35;;;16.60;95.10;;;;;;5070861;28;20200;-79
2022/04/17 11:01:41;;;;;;;2.90;2.70;;;16.60;95.30;;;;;;5072426;28;20167;-78
2022/04/17 11:04:18;;;;;;;3.97;3.28;;;16.70;94.90;;;;;;5072683;28;20187;-78
2022/04/17 11:06:45;;;;;;;2.92;2.40;;;16.80;95.00;;;;;;5071403;28;20635;-78
2022/04/17 11:09:24;;;;;;;4.85;4.05;;;16.90;95.30;;;;;;5072436;28;20194;-77
2022/04/17 11:11:51;;;;;;;2.55;2.35;;;16.90;94.60;;;;;;5072363;28;20257;-77
2022/04/17 11:14:20;;;;;;;2.80;2.60;;;17.10;93.60;;;;;;5072264;28;20202;-77
2022/04/17 11:16:57;;;;;;;16.65;6.00;;;16.90;93.60;;;;;;5071997;28;20190;-78
2022/04/17 11:19:33;;;;;;;6.10;4.72;;;16.90;94.30;;;;;;5072342;28;20166;-77
2022/04/17 11:22:04;;;;;;;6.28;4.20;;;16.90;94.70;;;;;;5071999;28;20626;-77
2022/04/17 11:24:55;;;;;;;2.70;2.50;;;17.00;94.90;;;;;;5072085;28;20220;-77
2022/04/17 11:27:41;;;;;;;8.68;3.38;;;17.30;94.60;;;;;;5071834;28;20174;-78
2022/04/17 11:30:27;;;;;;;5.13;3.63;;;17.50;94.40;;;;;;5071808;28;20162;-79
2022/04/17 11:32:53;;;;;;;3.28;2.92;;;17.40;94.00;;;;;;5071926;28;20178;-78
2022/04/17 11:35:22;;;;;;;3.92;3.28;;;17.40;93.10;;;;;;5072077;28;20212;-77
2022/04/17 11:37:55;;;;;;;2.92;2.65;;;17.50;94.60;;;;;;5071776;28;20253;-78
2022/04/17 11:40:23;;;;;;;6.93;4.63;;;17.60;94.20;;;;;;5072139;28;20630;-77
2022/04/17 11:42:54;;;;;;;4.05;2.78;;;17.60;94.20;;;;;;5072140;28;20212;-77
2022/04/17 11:45:26;;;;;;;4.22;2.78;;;17.50;93.60;;;;;;5071809;28;20158;-77
2022/04/17 11:47:53;;;;;;;7.47;3.55;;;17.40;94.00;;;;;;5076102;28;20159;-78
2022/04/17 11:50:29;;;;;;;5.90;3.58;;;17.30;94.20;;;;;;5076354;28;20174;-77
2022/04/17 11:53:14;;;;;;;2.92;2.40;;;17.50;94.50;;;;;;5076661;28;20184;-77
2022/04/17 11:55:43;;;;;;;4.20;3.00;;;17.70;93.10;;;;;;5074939;28;20578;-76
2022/04/17 11:58:20;;;;;;;3.45;2.97;;;17.70;94.10;;;;;;5076767;28;20623;-77
2022/04/17 12:00:58;;;;;;;5.05;3.28;;;17.90;93.80;;;;;;5076041;28;20266;-78
2022/04/17 12:03:36;;;;;;;3.97;3.63;;;18.00;93.10;;;;;;5075435;28;20182;-77
2022/04/17 12:06:03;;;;;;;3.45;3.15;;;18.00;93.50;;;;;;5078041;28;20194;-78
2022/04/17 12:08:33;;;;;;;4.75;3.15;;;17.90;93.50;;;;;;5077030;28;20253;-78
2022/04/17 12:10:59;;;;;;;6.63;2.90;;;17.90;93.50;;;;;;5074368;28;20615;-77
2022/04/17 12:13:25;;;;;;;20.92;3.22;;;17.80;93.50;;;;;;5075473;28;20284;-77
2022/04/17 12:16:02;;;;;;;3.85;3.55;;;17.90;93.50;;;;;;5075422;28;20279;-78
2022/04/17 12:18:29;;;;;;;4.10;3.70;;;17.90;92.50;;;;;;5075271;28;20203;-78
2022/04/17 12:21:02;;;;;;;3.42;3.13;;;17.90;93.00;;;;;;5075743;28;20236;-79
2022/04/17 12:23:32;;;;;;;3.42;2.90;;;17.90;93.00;;;;;;5076157;28;20752;-81
2022/04/17 12:25:59;;;;;;;3.92;3.58;;;17.90;93.10;;;;;;5076636;28;20170;-83
2022/04/17 12:28:26;;;;;;;4.00;3.53;;;18.00;92.90;;;;;;5076337;28;20158;-84
2022/04/17 12:30:52;;;;;;;3.50;3.05;;;18.00;92.40;;;;;;5077319;28;20240;-83
2022/04/17 12:33:26;;;;;;;4.13;3.50;;;17.90;92.90;;;;;;5076253;28;20781;-82
2022/04/17 12:36:10;;;;;;;5.78;3.38;;;18.00;93.30;;;;;;5075354;28;20541;-82
2022/04/17 12:38:37;;;;;;;4.25;3.83;;;18.00;93.40;;;;;;5073811;28;20513;-87
2022/04/17 12:41:16;;;;;;;4.30;3.80;;;18.00;93.20;;;;;;5074338;28;20192;-80
2022/04/17 12:43:42;;;;;;;4.00;3.25;;;18.10;92.80;;;;;;5075618;28;20190;-82
2022/04/17 12:46:07;;;;;;;5.68;3.55;;;18.10;92.10;;;;;;5075647;28;20928;-78
2022/04/17 12:48:35;;;;;;;3.40;2.90;;;18.30;92.40;;;;;;5074141;28;20247;-81
2022/04/17 12:51:03;;;;;;;3.33;3.03;;;18.40;91.80;;;;;;5074406;28;20175;-86
2022/04/17 12:53:40;;;;;;;3.30;2.42;;;18.40;92.10;;;;;;5075994;28;20187;-80
2022/04/17 12:56:09;;;;;;;4.43;3.67;;;18.40;92.60;;;;;;5076188;28;20177;-90
2022/04/17 12:58:54;;;;;;;4.15;3.42;;;18.60;91.70;;;;;;5075087;28;20166;-86
2022/04/17 13:01:28;;;;;;;5.70;3.40;;;18.60;92.10;;;;;;5076672;28;20167;-88
2022/04/17 13:04:26;;;;;;;3.65;2.90;;;18.70;92.10;;;;;;5075511;28;20232;-87
2022/04/17 13:07:13;;;;;;;3.17;2.88;;;18.90;91.60;;;;;;5042168;28;20324;-90
2022/04/17 13:09:51;;;;;;;4.00;3.00;;;18.90;91.30;;;;;;5077110;28;20179;-89
2022/04/17 13:12:36;;;;;;;3.45;3.10;;;19.00;91.10;;;;;;5076614;28;20170;-87